Lester B. Pearson International Airport
CYYZ : now visible

Airfield :











YOU CAN JOIN US ON...

 
LOGIN :

Register | Disclaimer

   EN    FR    IT 

 









Legend :    VFR   Marginal VFR   IFR   Intensive IFR   Very Intensive IFR
Visi :
Ceiling :
>= 8 km
>= 3000ft
5 to 8 km
1000 to 3000 ft
1500m to 5 km
500 to 1000 ft
800 to 1500m
200 to 500 ft
< 800m
< 200 ft
Symbols :   Thunderstorms  Fog  Heavy snow  Heavy precipitations  Wind > 20 kt







- Airport Elevation : 569 ft
- IATA code : YYZ


CYYZ - Lester B. Pearson International

CURRENT METAR :
  • 152145Z 27022G29KT 15SM VCSH SCT030 BKN038 M03/M09 A2966 RMK CU3SC4 SLP054

EXPIRED METARs :
  • 152111Z 27020G31KT 12SM -SHSN SCT031 BKN040 M02/M08 A2963 RMK CU3SC4 PRESRR SLP043
  • 152100Z 27023G34KT 15SM VCSH FEW031 BKN038 M02/M08 A2962 RMK CU2SC5 SLP039
  • 152000Z 26024G34KT 15SM FEW030 BKN039 M01/M07 A2956 RMK CU2SC5 SLP019
  • 151900Z 26024G32KT 15SM SCT030 BKN041 M01/M07 A2953 RMK CU3SC4 SLP008

TAF TAF CYYZ
Valid from the 15 at 21:00 until the 17 at 00:00 UTC


152041Z 1521/1624 26022G32KT P6SM SCT030 BKN040
TEMPO 1521/1604 P6SM -SHSN BKN020
BECMG 1522/1523 26015G25KT
FM160400 26012KT 6SM -SHSN BKN020
FM160700 29012KT P6SM BKN025
FM162000 34007KT P6SM SCT030 RMK NXT FCST BY 160000Z
CZYZ FIR / North America



MET'MAP, your aeronautical weather chart ! - Copyright ORBIFLY December 2007 - Disclaimer

ORBIFLY MET'MAP TEAM :

Programming & Development : Alexandra Zaïnal
Concept & Development : Baudouin d'Aumeries
Co-Development & Prog : Marc-Olivier Méhu
Technical & hardware support : Manuel Goepfert

Contact : metmap@orbifly.com




SOURCES & CREDITS :

   NOAA       Earth
Advisory